createdAt,value
2023-01-23T00:01:07.291Z,12.23
2023-01-23T00:03:33.479Z,11.73
2023-01-23T00:06:03.352Z,11.47
2023-01-23T00:08:29.770Z,10.77
2023-01-23T00:10:56.633Z,12.13
2023-01-23T00:13:23.230Z,11.23
2023-01-23T00:15:49.970Z,12.27
2023-01-23T00:18:16.569Z,10.97
2023-01-23T00:20:42.952Z,10.67
2023-01-23T00:23:11.201Z,8.77
2023-01-23T00:25:37.581Z,11.40
2023-01-23T00:28:04.076Z,9.43
2023-01-23T00:30:31.933Z,10.23
2023-01-23T00:32:58.318Z,11.00
2023-01-23T00:35:25.676Z,9.30
2023-01-23T00:37:53.700Z,11.10
2023-01-23T00:40:20.117Z,11.30
2023-01-23T00:42:46.647Z,10.47
2023-01-23T00:45:12.786Z,10.50
2023-01-23T00:47:39.395Z,10.73
2023-01-23T00:50:05.799Z,9.60
2023-01-23T00:52:31.954Z,10.17
2023-01-23T00:54:58.055Z,10.07
2023-01-23T00:57:24.218Z,11.07
2023-01-23T00:59:50.341Z,10.30
2023-01-23T01:02:16.492Z,7.20
2023-01-23T01:04:42.615Z,11.57
2023-01-23T01:07:08.767Z,8.70
2023-01-23T01:09:34.910Z,9.07
2023-01-23T01:12:01.098Z,9.83
2023-01-23T01:14:27.248Z,11.00
2023-01-23T01:16:53.377Z,10.07
2023-01-23T01:19:22.924Z,9.30
2023-01-23T01:21:49.078Z,8.97
2023-01-23T01:24:16.767Z,8.90
2023-01-23T01:26:42.897Z,11.33
2023-01-23T01:29:09.509Z,11.33
2023-01-23T01:31:35.805Z,9.97
2023-01-23T01:34:02.056Z,9.07
2023-01-23T01:36:28.616Z,10.03
2023-01-23T01:38:54.786Z,8.53
2023-01-23T01:41:21.026Z,8.40
2023-01-23T01:43:47.530Z,9.63
2023-01-23T01:46:26.428Z,9.07
2023-01-23T01:49:25.973Z,10.13
2023-01-23T01:52:09.642Z,10.17
2023-01-23T01:54:57.846Z,10.60
2023-01-23T01:57:35.169Z,10.87
2023-01-23T02:00:09.646Z,12.07
2023-01-23T02:03:00.168Z,8.80
2023-01-23T02:05:49.597Z,9.63
2023-01-23T02:08:34.362Z,15.27
2023-01-23T02:11:05.444Z,8.83
2023-01-23T02:13:42.100Z,8.27
2023-01-23T02:16:17.990Z,10.77
2023-01-23T02:18:48.414Z,13.50
2023-01-23T02:21:22.632Z,9.37
2023-01-23T02:24:24.530Z,9.20
2023-01-23T02:26:51.986Z,8.40
2023-01-23T02:29:19.501Z,10.10
2023-01-23T02:31:52.189Z,8.23
2023-01-23T02:34:21.448Z,10.27
2023-01-23T02:36:48.873Z,9.17
2023-01-23T02:39:18.974Z,9.07
2023-01-23T02:41:51.246Z,9.83
2023-01-23T02:44:25.433Z,7.53
2023-01-23T02:47:01.921Z,8.37
2023-01-23T02:49:28.477Z,10.80
2023-01-23T02:51:56.361Z,9.90
2023-01-23T02:54:23.632Z,8.30
2023-01-23T02:56:50.784Z,9.30
2023-01-23T02:59:38.163Z,11.80
2023-01-23T03:02:05.453Z,8.50
2023-01-23T03:04:31.787Z,7.83
2023-01-23T03:06:58.892Z,8.63
2023-01-23T03:09:25.960Z,13.03
2023-01-23T03:11:52.378Z,8.93
2023-01-23T03:14:21.625Z,9.33
2023-01-23T03:16:52.970Z,9.23
2023-01-23T03:19:25.861Z,8.60
2023-01-23T03:21:52.610Z,8.63
2023-01-23T03:24:20.236Z,9.10
2023-01-23T03:26:48.639Z,10.13
2023-01-23T03:29:43.514Z,12.07
2023-01-23T03:32:12.983Z,13.50
2023-01-23T03:34:40.692Z,13.33
2023-01-23T03:37:08.623Z,12.80
2023-01-23T03:39:55.125Z,12.13
2023-01-23T03:42:22.167Z,11.47
2023-01-23T03:44:52.129Z,10.73
2023-01-23T03:47:21.297Z,13.33
2023-01-23T03:49:47.553Z,11.37
2023-01-23T03:52:13.752Z,12.03
2023-01-23T03:54:41.377Z,10.67
2023-01-23T03:57:09.524Z,14.60
2023-01-23T03:59:59.196Z,10.13
2023-01-23T04:02:28.729Z,9.97
2023-01-23T04:04:55.375Z,9.40
2023-01-23T04:07:21.528Z,11.67
2023-01-23T04:09:48.362Z,10.97
2023-01-23T04:12:14.944Z,14.03
2023-01-23T04:14:44.271Z,11.60
2023-01-23T04:17:12.142Z,12.07
2023-01-23T04:19:38.788Z,13.40
2023-01-23T04:22:04.950Z,10.50
2023-01-23T04:24:37.906Z,12.97
2023-01-23T04:27:04.045Z,9.80
2023-01-23T04:29:30.245Z,12.33
2023-01-23T04:31:58.743Z,12.73
2023-01-23T04:34:24.996Z,11.33
2023-01-23T04:36:52.781Z,11.93
2023-01-23T04:39:19.175Z,13.07
2023-01-23T04:41:47.865Z,13.03
2023-01-23T04:44:26.592Z,10.67
2023-01-23T04:47:11.255Z,13.17
2023-01-23T04:49:38.680Z,13.47
2023-01-23T04:52:04.826Z,13.67
2023-01-23T04:54:35.293Z,13.37
2023-01-23T04:57:01.440Z,13.63
2023-01-23T04:59:28.701Z,13.10
2023-01-23T05:01:55.445Z,14.20
2023-01-23T05:04:21.883Z,16.10
2023-01-23T05:06:48.105Z,16.93
2023-01-23T05:09:15.560Z,15.03
2023-01-23T05:11:50.161Z,17.17
2023-01-23T05:14:17.497Z,15.70
2023-01-23T05:16:46.442Z,14.97
2023-01-23T05:19:28.043Z,16.00
2023-01-23T05:21:54.798Z,16.27
2023-01-23T05:24:21.777Z,17.90
2023-01-23T05:26:48.468Z,17.00
2023-01-23T05:29:15.263Z,14.87
2023-01-23T05:31:50.987Z,17.23
2023-01-23T05:34:36.106Z,17.47
2023-01-23T05:37:04.934Z,15.80
2023-01-23T05:39:34.112Z,15.40
2023-01-23T05:42:00.792Z,16.33
2023-01-23T05:44:31.394Z,16.03
2023-01-23T05:47:08.749Z,17.13
2023-01-23T05:49:35.021Z,18.87
2023-01-23T05:52:01.842Z,17.07
2023-01-23T05:54:28.547Z,17.43
2023-01-23T05:56:54.723Z,17.37
2023-01-23T05:59:39.525Z,16.53
2023-01-23T06:02:33.642Z,19.33
2023-01-23T06:05:24.670Z,16.73
2023-01-23T06:08:00.128Z,16.43
2023-01-23T06:10:26.288Z,17.43
2023-01-23T06:12:52.440Z,17.13
2023-01-23T06:15:18.627Z,18.23
2023-01-23T06:17:45.404Z,85.37
2023-01-23T06:20:12.104Z,61.17
2023-01-23T06:22:40.890Z,27.23
2023-01-23T06:25:11.916Z,20.07
2023-01-23T06:27:38.279Z,19.40
2023-01-23T06:30:08.271Z,17.23
2023-01-23T06:32:39.488Z,16.27
2023-01-23T06:35:07.928Z,17.73
2023-01-23T06:37:37.716Z,16.93
2023-01-23T06:40:05.605Z,19.43
2023-01-23T06:42:32.175Z,18.00
2023-01-23T06:44:58.502Z,21.10
2023-01-23T06:47:27.136Z,19.77
2023-01-23T06:50:01.160Z,17.83
2023-01-23T06:52:29.888Z,18.03
2023-01-23T06:54:56.162Z,16.23
2023-01-23T06:57:22.598Z,17.33
2023-01-23T06:59:49.811Z,19.23
2023-01-23T07:02:18.203Z,18.37
2023-01-23T07:04:51.368Z,18.90
2023-01-23T07:07:18.245Z,20.20
2023-01-23T07:09:47.427Z,17.77
2023-01-23T07:12:18.085Z,16.30
2023-01-23T07:14:44.980Z,16.60
2023-01-23T07:17:13.526Z,17.10
2023-01-23T07:19:39.831Z,19.13
2023-01-23T07:22:09.623Z,17.60
2023-01-23T07:24:35.724Z,21.20
2023-01-23T07:27:01.991Z,18.37
2023-01-23T07:29:28.104Z,16.83
2023-01-23T07:31:57.350Z,19.37
2023-01-23T07:34:23.615Z,18.07
2023-01-23T07:36:49.743Z,17.93
2023-01-23T07:39:15.884Z,26.53
2023-01-23T07:41:43.407Z,19.07
2023-01-23T07:44:17.778Z,20.30
2023-01-23T07:46:45.264Z,19.13
2023-01-23T07:49:12.724Z,19.50
2023-01-23T07:51:39.892Z,18.30
2023-01-23T07:54:06.593Z,19.10
2023-01-23T07:56:32.981Z,25.10
2023-01-23T07:58:59.688Z,19.63
2023-01-23T08:01:25.957Z,28.50
2023-01-23T08:03:53.033Z,23.10
2023-01-23T08:06:19.246Z,23.07
2023-01-23T08:08:48.553Z,25.90
2023-01-23T08:11:14.907Z,39.60
2023-01-23T08:13:41.184Z,24.83
2023-01-23T08:16:07.989Z,20.33
2023-01-23T08:18:34.509Z,22.73
2023-01-23T08:21:02.781Z,21.63
2023-01-23T08:23:32.024Z,18.33
2023-01-23T08:26:01.877Z,18.07
2023-01-23T08:28:28.487Z,16.13
2023-01-23T08:30:54.966Z,17.27
2023-01-23T08:33:21.915Z,17.43
2023-01-23T08:35:54.348Z,19.57
2023-01-23T08:38:22.613Z,17.80
2023-01-23T08:40:51.931Z,18.30
2023-01-23T08:43:19.840Z,23.63
2023-01-23T08:45:57.855Z,14.93
2023-01-23T08:48:26.021Z,14.50
2023-01-23T08:50:59.979Z,13.33
2023-01-23T08:53:26.648Z,13.33
2023-01-23T08:55:53.085Z,14.23
2023-01-23T08:58:19.725Z,17.60
2023-01-23T09:00:47.857Z,16.17
2023-01-23T09:03:13.988Z,14.37
2023-01-23T09:05:40.127Z,12.90
2023-01-23T09:08:06.244Z,16.10
2023-01-23T09:10:32.363Z,11.70
2023-01-23T09:12:58.711Z,10.93
2023-01-23T09:15:24.865Z,9.60
2023-01-23T09:17:51.085Z,9.90
2023-01-23T09:20:17.762Z,11.43
2023-01-23T09:22:44.202Z,13.47
2023-01-23T09:25:11.663Z,11.73
2023-01-23T09:27:37.817Z,9.57
2023-01-23T09:30:04.843Z,9.80
2023-01-23T09:32:31.051Z,9.33
2023-01-23T09:34:57.153Z,9.23
2023-01-23T09:37:23.301Z,9.33
2023-01-23T09:39:49.645Z,9.87
2023-01-23T09:42:34.017Z,12.50
2023-01-23T09:45:07.318Z,13.67
2023-01-23T09:48:06.375Z,9.93
2023-01-23T09:50:43.153Z,12.97
2023-01-23T09:53:19.907Z,9.60
2023-01-23T09:55:59.071Z,9.23
2023-01-23T09:58:36.491Z,9.67
2023-01-23T10:01:03.061Z,7.83
2023-01-23T10:03:31.721Z,10.33
2023-01-23T10:06:22.877Z,8.60
2023-01-23T10:09:20.067Z,9.17
2023-01-23T10:12:05.794Z,8.33
2023-01-23T10:15:13.408Z,8.43
2023-01-23T10:18:27.412Z,8.00
2023-01-23T10:21:01.086Z,10.10
2023-01-23T10:24:08.840Z,7.20
2023-01-23T10:26:45.900Z,7.67
2023-01-23T10:29:37.973Z,7.40
2023-01-23T10:32:37.557Z,6.77
2023-01-23T10:35:23.336Z,7.33
2023-01-23T10:38:13.712Z,6.83
2023-01-23T10:40:58.727Z,7.33
2023-01-23T10:43:26.713Z,8.03
2023-01-23T10:45:52.905Z,6.37
2023-01-23T10:48:42.623Z,7.43
2023-01-23T10:51:34.721Z,6.77
2023-01-23T10:54:08.544Z,6.50
2023-01-23T10:56:47.427Z,6.70
2023-01-23T10:59:48.090Z,6.90
2023-01-23T11:02:14.348Z,6.70
2023-01-23T11:04:44.537Z,6.33
2023-01-23T11:07:24.759Z,6.43
2023-01-23T11:09:57.224Z,7.27
2023-01-23T11:12:27.377Z,7.37
2023-01-23T11:15:31.577Z,7.07
2023-01-23T11:18:00.615Z,7.77
2023-01-23T11:20:36.392Z,7.40
2023-01-23T11:23:17.290Z,8.17
2023-01-23T11:25:44.761Z,7.00
2023-01-23T11:28:46.841Z,7.27
2023-01-23T11:31:21.165Z,8.10
2023-01-23T11:34:11.220Z,7.87
2023-01-23T11:36:47.905Z,8.10
2023-01-23T11:39:35.817Z,7.10
2023-01-23T11:42:02.315Z,7.20
2023-01-23T11:44:38.110Z,7.33
2023-01-23T11:47:48.348Z,7.20
2023-01-23T11:50:55.186Z,7.13
2023-01-23T11:53:54.572Z,7.23
2023-01-23T11:56:59.427Z,7.27
2023-01-23T12:00:05.965Z,7.40
2023-01-23T12:02:58.023Z,7.27
2023-01-23T12:06:23.167Z,9.17
2023-01-23T12:09:16.361Z,7.87
2023-01-23T12:12:28.244Z,10.90
2023-01-23T12:15:37.292Z,8.80
2023-01-23T12:18:56.507Z,9.07
2023-01-23T12:22:05.305Z,7.50
2023-01-23T12:25:27.571Z,8.20
2023-01-23T12:28:42.019Z,9.30
2023-01-23T12:31:26.839Z,8.13
2023-01-23T12:34:18.557Z,9.77
2023-01-23T12:37:19.304Z,8.53
2023-01-23T12:40:00.731Z,8.07
2023-01-23T12:42:41.900Z,8.13
2023-01-23T12:45:14.870Z,8.87
2023-01-23T12:48:11.895Z,8.97
2023-01-23T12:51:01.267Z,8.37
2023-01-23T12:53:32.229Z,8.87
2023-01-23T12:56:28.242Z,9.03
2023-01-23T12:59:29.181Z,8.53
2023-01-23T13:02:41.558Z,8.57
2023-01-23T13:05:15.340Z,8.60
2023-01-23T13:07:51.349Z,8.23
2023-01-23T13:11:04.964Z,8.67
2023-01-23T13:13:32.450Z,8.13
2023-01-23T13:16:10.276Z,8.77
2023-01-23T13:18:58.013Z,8.87
2023-01-23T13:21:42.736Z,8.73
2023-01-23T13:24:50.625Z,7.67
2023-01-23T13:27:35.206Z,9.07
2023-01-23T13:30:04.427Z,9.67
2023-01-23T13:32:31.162Z,7.93
2023-01-23T13:34:57.385Z,8.03
2023-01-23T13:37:50.384Z,9.07
2023-01-23T13:40:21.247Z,7.57
2023-01-23T13:42:47.921Z,7.97
2023-01-23T13:45:28.702Z,8.40
2023-01-23T14:22:37.287Z,9.07
2023-01-23T14:25:17.218Z,7.90
2023-01-23T14:27:52.785Z,8.20
2023-01-23T14:30:25.769Z,8.50
2023-01-23T14:32:51.883Z,8.67
2023-01-23T14:35:26.267Z,9.00
2023-01-23T14:37:57.050Z,12.40
2023-01-23T14:40:28.331Z,12.27
2023-01-23T14:43:07.063Z,11.97
2023-01-23T14:45:35.584Z,9.60
2023-01-23T14:48:07.070Z,9.23
2023-01-23T14:50:34.806Z,10.07
2023-01-23T14:53:06.010Z,9.00
2023-01-23T14:55:39.001Z,10.40
2023-01-23T14:58:06.887Z,10.00
2023-01-23T15:00:35.225Z,8.40
2023-01-23T15:03:03.477Z,10.33
2023-01-23T15:05:32.017Z,9.37
2023-01-23T15:08:03.264Z,9.37
2023-01-23T15:10:35.341Z,10.00
2023-01-23T15:13:11.133Z,10.27
2023-01-23T15:15:43.519Z,11.87
2023-01-23T15:18:39.474Z,9.63
2023-01-23T15:21:08.078Z,10.57
2023-01-23T15:23:39.637Z,10.77
2023-01-23T15:26:23.735Z,10.37
2023-01-23T15:28:52.794Z,11.77
2023-01-23T15:31:33.748Z,11.27
2023-01-23T15:34:15.184Z,14.87
2023-01-23T15:37:04.695Z,11.30
2023-01-23T15:39:45.766Z,11.27
2023-01-23T15:42:12.072Z,9.97
2023-01-23T15:44:39.129Z,10.97
2023-01-23T15:47:05.663Z,15.30
2023-01-23T15:49:35.033Z,12.43
2023-01-23T15:52:20.894Z,10.83
2023-01-23T15:54:51.043Z,11.60
2023-01-23T15:57:17.311Z,10.87
2023-01-23T15:59:43.541Z,11.90
2023-01-23T16:02:30.717Z,11.30
2023-01-23T16:04:57.989Z,14.83
2023-01-23T16:07:31.595Z,15.07
2023-01-23T16:09:57.743Z,13.77
2023-01-23T16:12:28.709Z,13.20
2023-01-23T16:14:55.657Z,12.27
2023-01-23T16:17:22.389Z,11.00
2023-01-23T16:19:49.854Z,11.77
2023-01-23T16:22:26.035Z,13.60
2023-01-23T16:24:53.033Z,12.57
2023-01-23T16:27:26.359Z,10.57
2023-01-23T16:29:54.729Z,14.37
2023-01-23T16:32:21.027Z,14.10
2023-01-23T16:34:47.872Z,11.80
2023-01-23T16:37:16.712Z,11.60
2023-01-23T16:39:47.010Z,13.23
2023-01-23T16:42:21.680Z,14.33
2023-01-23T16:44:48.380Z,13.37
2023-01-23T16:47:14.606Z,12.20
2023-01-23T16:49:51.445Z,13.20
2023-01-23T16:52:19.873Z,13.70
2023-01-23T16:54:46.000Z,13.17
2023-01-23T16:57:19.637Z,13.70
2023-01-23T16:59:47.411Z,12.37
2023-01-23T17:02:25.002Z,11.47
2023-01-23T17:04:51.357Z,14.57
2023-01-23T17:07:18.793Z,13.13
2023-01-23T17:09:46.564Z,11.17
2023-01-23T17:12:20.214Z,12.47
2023-01-23T17:14:48.564Z,10.67
2023-01-23T17:17:31.100Z,11.73
2023-01-23T17:19:58.523Z,9.93
2023-01-23T17:22:29.661Z,10.53
2023-01-23T17:24:55.907Z,10.77
2023-01-23T17:27:22.186Z,10.67
2023-01-23T17:29:48.836Z,12.53
2023-01-23T17:32:32.198Z,11.80
2023-01-23T17:35:02.884Z,13.63
2023-01-23T17:37:30.105Z,11.43
2023-01-23T17:39:56.259Z,11.03
2023-01-23T17:42:22.390Z,10.77
2023-01-23T17:44:48.825Z,11.73
2023-01-23T17:47:16.269Z,11.80
2023-01-23T17:49:51.093Z,14.13
2023-01-23T17:52:19.426Z,14.93
2023-01-23T17:54:45.529Z,13.03
2023-01-23T17:57:11.769Z,11.40
2023-01-23T17:59:37.867Z,12.33
2023-01-23T18:02:27.242Z,13.73
2023-01-23T18:04:54.588Z,12.97
2023-01-23T18:07:20.731Z,11.27
2023-01-23T18:09:46.845Z,14.33
2023-01-23T18:12:49.470Z,11.70
2023-01-23T18:15:39.100Z,21.10
2023-01-23T18:18:26.969Z,11.50
2023-01-23T18:20:54.000Z,10.60
2023-01-23T18:23:25.831Z,11.23
2023-01-23T18:26:30.876Z,12.20
2023-01-23T18:29:05.743Z,15.77
2023-01-23T18:31:48.791Z,19.33
2023-01-23T18:34:42.618Z,14.97
2023-01-23T18:37:39.650Z,13.67
2023-01-23T18:40:34.849Z,16.37
2023-01-23T18:43:34.572Z,15.90
2023-01-23T18:46:01.302Z,12.80
2023-01-23T18:48:27.960Z,15.77
2023-01-23T18:51:35.686Z,17.80
2023-01-23T18:54:21.955Z,18.00
2023-01-23T18:57:12.524Z,16.63
2023-01-23T19:00:04.954Z,17.43
2023-01-23T19:02:46.070Z,13.63
2023-01-23T19:05:18.350Z,18.53
2023-01-23T19:07:46.415Z,15.60
2023-01-23T19:10:22.292Z,14.70
2023-01-23T19:13:28.813Z,13.40
2023-01-23T19:16:25.676Z,12.40
2023-01-23T19:19:16.265Z,15.10
2023-01-23T19:21:45.687Z,24.33
2023-01-23T19:24:18.603Z,12.27
2023-01-23T19:26:45.781Z,16.93
2023-01-23T19:29:21.946Z,13.47
2023-01-23T19:32:06.415Z,14.13
2023-01-23T19:34:33.552Z,13.93
2023-01-23T19:36:59.700Z,15.63
2023-01-23T19:39:25.888Z,13.90
2023-01-23T19:41:52.705Z,14.27
2023-01-23T19:44:23.474Z,13.40
2023-01-23T19:46:50.484Z,17.93
2023-01-23T19:49:16.861Z,15.10
2023-01-23T19:51:43.566Z,12.80
2023-01-23T19:54:14.995Z,12.10
2023-01-23T19:56:42.039Z,19.27
2023-01-23T19:59:08.181Z,23.67
2023-01-23T20:01:47.718Z,15.67
2023-01-23T20:04:20.991Z,20.00
2023-01-23T20:06:50.753Z,15.20
2023-01-23T20:09:17.757Z,14.57
2023-01-23T20:11:45.073Z,13.17
2023-01-23T20:14:11.649Z,13.43
2023-01-23T20:16:40.261Z,11.97
2023-01-23T20:19:06.884Z,11.33
2023-01-23T20:21:33.424Z,13.57
2023-01-23T20:23:59.892Z,15.87
2023-01-23T20:26:26.098Z,14.83
2023-01-23T20:28:52.553Z,15.87
2023-01-23T20:31:19.801Z,14.90
2023-01-23T20:33:46.010Z,15.43
2023-01-23T20:36:13.065Z,14.10
2023-01-23T20:38:40.151Z,13.53
2023-01-23T20:41:13.597Z,12.17
2023-01-23T20:43:42.424Z,12.33
2023-01-23T20:46:09.727Z,12.03
2023-01-23T20:48:37.809Z,13.00
2023-01-23T20:51:06.065Z,15.97
2023-01-23T20:53:35.012Z,12.27
2023-01-23T20:56:09.624Z,12.47
2023-01-23T20:58:58.225Z,13.27
2023-01-23T21:01:29.188Z,12.00
2023-01-23T21:03:55.492Z,10.77
2023-01-23T21:06:22.435Z,10.90
2023-01-23T21:08:48.559Z,15.60
2023-01-23T21:11:18.711Z,14.73
2023-01-23T21:13:51.325Z,10.17
2023-01-23T21:16:19.798Z,10.77
2023-01-23T21:18:47.311Z,10.00
2023-01-23T21:21:18.442Z,14.80
2023-01-23T21:23:47.995Z,13.33
2023-01-23T21:26:21.560Z,13.03
2023-01-23T21:28:50.656Z,11.80
2023-01-23T21:31:22.157Z,9.93
2023-01-23T21:33:49.134Z,10.67
2023-01-23T21:36:21.101Z,11.60
2023-01-23T21:38:51.392Z,10.93
2023-01-23T21:41:18.144Z,10.80
2023-01-23T21:43:44.305Z,10.70
2023-01-23T21:46:10.443Z,10.30
2023-01-23T21:48:37.032Z,9.50
2023-01-23T21:51:16.570Z,9.80
2023-01-23T21:53:46.954Z,10.13
2023-01-23T21:56:17.607Z,9.80
2023-01-23T21:58:44.286Z,9.10
2023-01-23T22:01:35.019Z,9.80
2023-01-23T22:04:30.519Z,11.37
2023-01-23T22:06:57.808Z,9.90
2023-01-23T22:09:25.846Z,10.43
2023-01-23T22:11:52.897Z,8.70
2023-01-23T22:14:19.148Z,9.60
2023-01-23T22:16:49.164Z,9.97
2023-01-23T22:19:22.613Z,9.83
2023-01-23T22:21:50.591Z,10.00
2023-01-23T22:24:17.073Z,9.27
2023-01-23T22:26:43.543Z,9.43
2023-01-23T22:29:12.957Z,8.97
2023-01-23T22:31:39.387Z,9.17
2023-01-23T22:34:05.697Z,9.17
2023-01-23T22:36:31.859Z,8.80
2023-01-23T22:38:58.257Z,8.80
2023-01-23T22:41:24.464Z,8.53
2023-01-23T22:43:58.476Z,8.47
2023-01-23T22:46:24.647Z,9.13
2023-01-23T22:48:51.348Z,9.80
2023-01-23T22:51:26.914Z,8.97
2023-01-23T22:53:54.822Z,9.00
2023-01-23T22:56:22.521Z,9.03
2023-01-23T22:58:51.081Z,9.73
2023-01-23T23:01:18.534Z,9.63
2023-01-23T23:03:45.480Z,8.87
2023-01-23T23:06:15.085Z,9.23
2023-01-23T23:08:42.957Z,9.00
2023-01-23T23:11:13.530Z,9.37
2023-01-23T23:13:40.669Z,9.13
2023-01-23T23:16:21.169Z,9.00
2023-01-23T23:18:51.709Z,8.37
2023-01-23T23:21:24.371Z,8.80
2023-01-23T23:23:51.738Z,9.03
2023-01-23T23:26:17.851Z,9.33
2023-01-23T23:28:44.027Z,8.13
2023-01-23T23:31:10.494Z,9.50
2023-01-23T23:33:37.160Z,11.50
2023-01-23T23:36:03.791Z,8.83
2023-01-23T23:38:29.930Z,9.93
2023-01-23T23:40:59.062Z,9.23
2023-01-23T23:43:26.424Z,9.27
2023-01-23T23:46:05.260Z,9.30
2023-01-23T23:48:35.763Z,8.80
2023-01-23T23:51:06.200Z,9.10
2023-01-23T23:53:33.800Z,9.00
2023-01-23T23:56:00.371Z,8.90
2023-01-23T23:58:26.849Z,9.00
